Time;durP1;ratioP1;P1;durP2;ratioP2;P2;SDS_P1;SDS_P2;PMS_P1;PMS_P2;Temp;Humidity;BMP_temperature;BMP_pressure;BME280_temperature;BME280_humidity;BME280_pressure;Samples;Min_cycle;Max_cycle;Signal;HPM_P1;HPM_P2
2024/04/11 00:01:13;;;;;;;4.67;1.70;;;;;;;11.51;61.13;101795.53;5436129;26;20756;-64
2024/04/11 00:03:41;;;;;;;2.97;1.60;;;;;;;11.51;61.18;101792.09;5437000;26;20250;-63
2024/04/11 00:06:11;;;;;;;3.37;1.90;;;;;;;11.50;61.61;101793.81;5436004;26;20385;-63
2024/04/11 00:08:41;;;;;;;2.50;1.57;;;;;;;11.51;61.06;101800.72;5435988;26;20853;-69
2024/04/11 00:11:11;;;;;;;2.57;1.97;;;;;;;11.53;61.00;101804.19;5439622;26;20266;-71
2024/04/11 00:13:38;;;;;;;2.63;1.60;;;;;;;11.51;60.98;101803.28;5438348;26;20262;-69
2024/04/11 00:16:09;;;;;;;2.20;1.60;;;;;;;11.47;60.61;101798.06;5437634;26;20573;-70
2024/04/11 00:18:39;;;;;;;2.20;1.50;;;;;;;11.47;61.22;101809.25;5439177;26;20614;-70
2024/04/11 00:21:10;;;;;;;7.20;1.63;;;;;;;11.45;60.97;101800.66;5431571;26;20253;-70
2024/04/11 00:23:37;;;;;;;1.97;1.70;;;;;;;11.42;60.50;101789.44;5439586;26;20819;-71
2024/04/11 00:26:10;;;;;;;4.13;1.77;;;;;;;11.44;60.08;101798.91;5433309;26;20242;-70
2024/04/11 00:28:38;;;;;;;3.00;1.47;;;;;;;11.39;59.66;101799.69;5437907;26;20834;-71
2024/04/11 00:31:10;;;;;;;3.00;1.57;;;;;;;11.32;60.13;101803.91;5435972;26;20977;-70
2024/04/11 00:33:54;;;;;;;3.37;1.57;;;;;;;11.26;59.98;101798.66;5437604;26;20253;-68
2024/04/11 00:36:26;;;;;;;3.07;1.50;;;;;;;11.24;59.97;101800.34;5435313;26;20320;-68
2024/04/11 00:38:55;;;;;;;2.10;1.40;;;;;;;11.21;60.18;101797.72;5438554;26;20254;-71
2024/04/11 00:41:28;;;;;;;3.23;1.33;;;;;;;11.18;60.08;101798.53;5439260;26;20301;-69
2024/04/11 00:43:55;;;;;;;1.80;1.20;;;;;;;11.15;60.05;101795.06;5437544;26;20938;-69
2024/04/11 00:46:27;;;;;;;2.97;1.17;;;;;;;11.13;60.19;101801.06;5439784;26;20737;-71
2024/04/11 00:48:54;;;;;;;5.00;1.50;;;;;;;11.12;60.19;101794.19;5427189;26;20297;-70
2024/04/11 00:51:25;;;;;;;3.47;1.13;;;;;;;11.15;59.69;101795.06;5432957;26;20629;-69
2024/04/11 00:53:56;;;;;;;3.73;1.47;;;;;;;11.18;59.90;101795.09;5440181;26;20748;-71
2024/04/11 00:56:29;;;;;;;2.57;1.30;;;;;;;11.16;59.88;101799.34;5435862;26;20729;-70
2024/04/11 00:58:57;;;;;;;2.47;1.20;;;;;;;11.10;59.57;101797.56;5437543;26;20242;-69
2024/04/11 01:01:29;;;;;;;3.70;1.53;;;;;;;11.08;59.47;101800.16;5434462;26;23961;-68
2024/04/11 01:03:59;;;;;;;2.83;1.20;;;;;;;11.02;59.39;101805.22;5439312;26;20294;-70
2024/04/11 01:06:29;;;;;;;3.33;1.40;;;;;;;10.98;59.17;101810.31;5448312;26;20288;-69
2024/04/11 01:08:58;;;;;;;1.70;1.10;;;;;;;10.93;58.61;101812.78;5444804;26;21244;-70
2024/04/11 01:11:30;;;;;;;2.90;1.37;;;;;;;10.91;58.78;101819.66;5446083;26;20245;-68
2024/04/11 01:13:59;;;;;;;2.53;0.90;;;;;;;10.91;58.74;101813.63;5442317;26;20265;-66
2024/04/11 01:16:30;;;;;;;3.27;1.13;;;;;;;10.91;58.61;101819.66;5442046;26;20249;-70
2024/04/11 01:18:57;;;;;;;3.20;1.10;;;;;;;10.92;58.99;101817.94;5436049;26;20322;-62
2024/04/11 01:21:28;;;;;;;3.40;1.40;;;;;;;10.90;58.89;101823.09;5438698;26;20292;-63
2024/04/11 01:23:58;;;;;;;3.77;1.20;;;;;;;10.88;58.91;101819.59;5435994;26;21432;-62
2024/04/11 01:26:28;;;;;;;3.37;1.17;;;;;;;10.81;58.22;101816.03;5442567;26;20341;-65
2024/04/11 01:28:55;;;;;;;3.20;1.00;;;;;;;10.82;58.20;101822.06;5444006;26;20626;-62
2024/04/11 01:31:25;;;;;;;2.07;1.17;;;;;;;10.77;58.45;101819.44;5440381;26;20642;-65
2024/04/11 01:33:52;;;;;;;3.23;1.20;;;;;;;10.80;58.26;101826.34;5435966;26;20300;-66
2024/04/11 01:36:23;;;;;;;2.33;1.20;;;;;;;10.74;57.58;101823.66;5441251;26;20242;-61
2024/04/11 01:38:51;;;;;;;5.40;1.70;;;;;;;10.69;58.09;101828.75;5451793;26;20790;-61
2024/04/11 01:41:23;;;;;;;3.87;1.50;;;;;;;10.68;57.79;101823.56;5442645;26;20613;-62
2024/04/11 01:43:51;;;;;;;5.30;1.93;;;;;;;10.69;58.11;101825.31;5443296;26;20670;-66
2024/04/11 01:46:21;;;;;;;4.73;1.53;;;;;;;10.69;57.43;101827.88;5435054;26;20247;-61
2024/04/11 01:48:49;;;;;;;4.87;1.83;;;;;;;10.63;57.48;101834.66;5440024;26;20732;-66
2024/04/11 01:51:19;;;;;;;5.43;1.50;;;;;;;10.63;57.24;101832.09;5438746;26;20254;-63
2024/04/11 01:53:46;;;;;;;3.23;1.27;;;;;;;10.65;57.31;101834.69;5434901;26;20310;-62
2024/04/11 01:56:16;;;;;;;3.00;1.40;;;;;;;10.63;57.43;101833.78;5440681;26;20271;-63
2024/04/11 01:58:46;;;;;;;6.37;1.30;;;;;;;10.65;57.17;101834.69;5448037;26;20296;-63
2024/04/11 02:01:19;;;;;;;3.33;1.43;;;;;;;10.66;57.45;101838.16;5435049;26;20749;-62
2024/04/11 02:03:46;;;;;;;3.77;1.57;;;;;;;10.66;56.97;101835.56;5449008;26;20351;-62
2024/04/11 02:06:17;;;;;;;4.57;1.50;;;;;;;10.64;57.04;101839.00;5440691;26;20291;-61
2024/04/11 02:08:44;;;;;;;3.17;1.40;;;;;;;10.64;57.36;101833.84;5444503;26;20246;-60
2024/04/11 02:11:14;;;;;;;4.37;1.83;;;;;;;10.63;57.30;101841.53;5439787;26;20250;-63
2024/04/11 02:13:41;;;;;;;2.67;1.20;;;;;;;10.58;57.22;101836.31;5434518;26;20616;-63
2024/04/11 02:16:14;;;;;;;5.77;1.77;;;;;;;10.56;57.20;101835.41;5442064;26;20634;-61
2024/04/11 02:18:41;;;;;;;6.50;1.60;;;;;;;10.57;57.43;101842.31;5440143;26;20246;-62
2024/04/11 02:21:11;;;;;;;2.60;1.40;;;;;;;10.58;57.68;101849.19;5439329;26;20289;-62
2024/04/11 02:23:39;;;;;;;3.47;1.50;;;;;;;10.57;57.84;101842.31;5431650;26;20386;-61
2024/04/11 02:26:08;;;;;;;2.63;1.50;;;;;;;10.58;57.53;101848.31;5435557;26;20737;-64
2024/04/11 02:28:36;;;;;;;4.17;1.60;;;;;;;10.54;57.72;101856.84;5432006;26;20306;-63
2024/04/11 02:31:06;;;;;;;3.53;1.80;;;;;;;10.51;58.15;101855.06;5440369;26;20250;-71
2024/04/11 02:33:36;;;;;;;5.33;1.73;;;;;;;10.48;58.39;101867.03;5438072;26;20276;-71
2024/04/11 02:36:09;;;;;;;4.43;1.50;;;;;;;10.46;58.35;101858.44;5442335;26;20577;-70
2024/04/11 02:38:36;;;;;;;6.23;2.23;;;;;;;10.48;59.00;101867.03;5453763;26;20234;-72
2024/04/11 02:41:09;;;;;;;4.03;1.90;;;;;;;10.47;59.54;101860.16;5454163;26;20760;-71
2024/04/11 02:43:39;;;;;;;4.63;2.03;;;;;;;10.43;59.82;101860.94;5442016;26;20257;-70
2024/04/11 02:46:15;;;;;;;6.93;2.00;;;;;;;10.38;60.70;101855.69;5442196;26;20257;-72
2024/04/11 02:48:46;;;;;;;5.53;2.20;;;;;;;10.39;60.87;101865.19;5440440;26;20245;-72
2024/04/11 02:51:17;;;;;;;4.80;1.90;;;;;;;10.39;61.41;101862.59;5440332;26;20242;-70
2024/04/11 02:53:45;;;;;;;2.53;1.80;;;;;;;10.38;61.40;101859.16;5436645;26;20288;-68
2024/04/11 02:56:16;;;;;;;3.13;1.90;;;;;;;10.39;61.83;101862.59;5436009;26;20626;-69
2024/04/11 02:58:43;;;;;;;4.83;2.33;;;;;;;10.34;62.10;101853.91;5443424;26;20246;-71
2024/04/11 03:01:14;;;;;;;3.63;2.20;;;;;;;10.36;62.50;101868.56;5438809;26;20268;-69
2024/04/11 03:03:48;;;;;;;5.13;2.77;;;;;;;10.34;63.06;101865.06;5434073;26;20246;-66
2024/04/11 03:06:21;;;;;;;6.10;2.70;;;;;;;10.28;63.75;101864.09;5441009;26;20292;-69
2024/04/11 03:08:50;;;;;;;3.43;2.30;;;;;;;10.22;64.08;101864.81;5434269;26;21650;-70
2024/04/11 03:11:23;;;;;;;3.60;2.40;;;;;;;10.20;64.09;101870.75;5442732;26;20246;-69
2024/04/11 03:13:55;;;;;;;3.70;2.27;;;;;;;10.14;64.20;101872.41;5440923;26;20296;-72
2024/04/11 03:16:27;;;;;;;5.17;2.97;;;;;;;10.12;64.29;101879.22;5439479;26;21140;-70
2024/04/11 03:18:57;;;;;;;5.07;2.20;;;;;;;10.10;64.74;101877.47;5438504;26;21092;-72
2024/04/11 03:21:28;;;;;;;7.77;2.90;;;;;;;10.07;64.64;101875.69;5437271;26;20265;-68
2024/04/11 03:23:55;;;;;;;4.73;2.47;;;;;;;10.03;64.83;101883.31;5445576;26;20254;-72
2024/04/11 03:26:25;;;;;;;6.30;3.03;;;;;;;9.98;65.39;101875.50;5440856;26;20251;-72
2024/04/11 03:28:53;;;;;;;7.37;2.60;;;;;;;9.99;65.36;101881.53;5446265;26;20246;-68
2024/04/11 03:31:23;;;;;;;4.17;2.90;;;;;;;9.96;65.34;101891.75;5438962;26;20352;-71
2024/04/11 03:33:50;;;;;;;5.27;2.97;;;;;;;9.93;65.70;101895.13;5436158;26;20243;-70
2024/04/11 03:36:24;;;;;;;5.03;2.57;;;;;;;9.89;65.24;101895.91;5438142;26;20666;-74
2024/04/11 03:38:54;;;;;;;4.37;2.60;;;;;;;9.86;65.09;101895.84;5436010;26;20599;-72
2024/04/11 03:41:26;;;;;;;7.13;2.30;;;;;;;9.83;65.39;101895.78;5438012;26;20788;-64
2024/04/11 03:43:56;;;;;;;5.00;2.23;;;;;;;9.83;65.26;101888.03;5437745;26;20242;-65
2024/04/11 03:46:26;;;;;;;4.57;2.60;;;;;;;9.84;65.31;101894.97;5438209;26;20273;-64
2024/04/11 03:48:58;;;;;;;5.63;2.70;;;;;;;9.86;65.00;101896.72;5435849;26;20239;-65
2024/04/11 03:51:30;;;;;;;5.37;2.90;;;;;;;9.92;65.14;101895.97;5447713;26;20257;-62
2024/04/11 03:54:01;;;;;;;6.13;2.37;;;;;;;9.95;65.04;101905.50;5435782;26;20258;-63
2024/04/11 03:56:29;;;;;;;5.67;2.70;;;;;;;9.93;64.79;101905.44;5435160;26;20246;-63
2024/04/11 03:59:01;;;;;;;7.13;2.53;;;;;;;9.94;64.87;101907.16;5437823;26;20266;-64
2024/04/11 04:01:30;;;;;;;5.10;2.50;;;;;;;9.95;65.10;101908.94;5443960;26;21382;-64
2024/04/11 04:04:02;;;;;;;6.47;2.73;;;;;;;9.96;65.04;101892.63;5438774;26;20284;-64
2024/04/11 04:06:35;;;;;;;4.50;3.03;;;;;;;9.98;65.05;101901.28;5439261;26;20284;-66
2024/04/11 04:09:07;;;;;;;5.27;2.73;;;;;;;9.98;64.77;101908.09;5436368;26;20869;-64
2024/04/11 04:11:37;;;;;;;6.00;2.70;;;;;;;9.97;64.92;101903.78;5437507;26;20238;-66
2024/04/11 04:14:09;;;;;;;4.20;2.60;;;;;;;9.96;64.53;101902.94;5439369;26;20288;-63
2024/04/11 04:16:38;;;;;;;5.47;2.53;;;;;;;9.93;64.52;101911.44;5435116;26;20242;-64
2024/04/11 04:19:09;;;;;;;8.40;2.90;;;;;;;9.88;64.18;101910.50;5438745;26;20281;-64
2024/04/11 04:21:41;;;;;;;9.20;2.60;;;;;;;9.90;64.42;101907.94;5436572;26;20253;-65
2024/04/11 04:24:12;;;;;;;4.53;2.23;;;;;;;9.90;63.96;101905.38;5434380;26;20310;-64
2024/04/11 04:26:40;;;;;;;5.40;2.30;;;;;;;9.92;63.96;101909.72;5438592;26;20306;-68
2024/04/11 04:29:10;;;;;;;5.77;2.67;;;;;;;9.91;63.94;101909.69;5443331;26;20238;-63
2024/04/11 04:31:37;;;;;;;6.27;2.63;;;;;;;9.94;64.00;101912.31;5449139;26;20295;-64
2024/04/11 04:34:09;;;;;;;6.10;2.60;;;;;;;9.90;63.63;101908.84;5450238;26;20793;-63
2024/04/11 04:36:40;;;;;;;7.90;2.83;;;;;;;9.89;63.57;101912.22;5450166;26;20281;-64
2024/04/11 04:39:13;;;;;;;4.93;2.27;;;;;;;9.87;63.22;101913.06;5444338;26;20840;-64
2024/04/11 04:41:43;;;;;;;8.47;3.10;;;;;;;9.88;63.31;101919.94;5442678;26;20246;-63
2024/04/11 04:44:14;;;;;;;3.47;2.23;;;;;;;9.92;63.13;101916.59;5449953;26;20246;-64
2024/04/11 04:46:44;;;;;;;6.60;2.67;;;;;;;9.97;62.64;101916.66;5441666;26;20253;-63
2024/04/11 04:49:14;;;;;;;4.03;1.93;;;;;;;10.01;62.30;101918.47;5451056;26;20330;-62
2024/04/11 04:51:44;;;;;;;4.60;2.30;;;;;;;10.17;62.11;101923.13;5450606;26;20706;-65
2024/04/11 04:54:16;;;;;;;6.23;3.00;;;;;;;10.29;61.52;101922.50;5449560;26;20230;-64
2024/04/11 04:56:45;;;;;;;4.87;2.40;;;;;;;10.35;61.20;101923.50;5446366;26;20393;-63
2024/04/11 04:59:16;;;;;;;10.17;2.40;;;;;;;10.46;60.98;101928.00;5447184;26;20277;-64
2024/04/11 05:01:43;;;;;;;4.40;2.30;;;;;;;10.52;60.22;101928.09;5445957;26;20250;-65
2024/04/11 05:04:16;;;;;;;4.37;2.13;;;;;;;10.61;60.20;101917.97;5449900;26;20234;-62
2024/04/11 05:06:49;;;;;;;5.80;2.13;;;;;;;10.76;59.41;101922.53;5446570;26;20246;-63
2024/04/11 05:09:19;;;;;;;5.70;2.47;;;;;;;10.88;59.24;101922.75;5450081;26;20234;-64
2024/04/11 05:11:46;;;;;;;5.10;2.30;;;;;;;10.98;58.45;101927.22;5449755;26;20249;-65
2024/04/11 05:14:16;;;;;;;6.27;2.27;;;;;;;11.08;58.43;101918.81;5448758;26;20748;-67
2024/04/11 05:16:44;;;;;;;7.63;2.47;;;;;;;11.18;57.81;101934.44;5444178;26;20858;-65
2024/04/11 05:19:15;;;;;;;6.57;2.90;;;;;;;11.29;57.55;101932.88;5443210;26;20288;-65
2024/04/11 05:21:46;;;;;;;5.83;2.10;;;;;;;11.36;56.61;101938.16;5442829;26;20301;-63
2024/04/11 05:24:17;;;;;;;7.97;2.40;;;;;;;11.36;56.25;101945.91;5449202;26;20234;-63
2024/04/11 05:26:48;;;;;;;7.90;2.67;;;;;;;11.34;55.81;101941.56;5447356;26;20285;-64
2024/04/11 05:29:20;;;;;;;4.77;2.37;;;;;;;11.27;56.49;101950.06;5446513;26;20242;-65
2024/04/11 05:31:47;;;;;;;5.80;2.67;;;;;;;11.13;56.62;101945.53;5443714;26;20354;-63
2024/04/11 05:34:20;;;;;;;7.37;2.33;;;;;;;11.02;56.85;101953.94;5445014;26;20246;-65
2024/04/11 05:36:51;;;;;;;5.80;1.90;;;;;;;10.87;56.94;101958.00;5444399;26;20234;-64
2024/04/11 05:39:22;;;;;;;6.37;2.10;;;;;;;10.80;56.90;101960.44;5451173;26;20280;-62
2024/04/11 05:41:51;;;;;;;9.17;2.57;;;;;;;10.69;56.84;101956.78;5451029;26;20254;-64
2024/04/11 05:44:22;;;;;;;4.50;1.80;;;;;;;10.66;57.36;101964.47;5446864;26;20276;-65
2024/04/11 05:46:52;;;;;;;4.60;2.10;;;;;;;10.68;57.38;101966.25;5453774;26;20242;-64
2024/04/11 05:49:20;;;;;;;7.57;2.20;;;;;;;10.71;57.15;101962.81;5453747;26;20272;-63
2024/04/11 05:51:53;;;;;;;5.67;2.33;;;;;;;10.71;56.62;101967.97;5446913;26;20257;-70
2024/04/11 05:54:21;;;;;;;7.73;2.50;;;;;;;10.73;56.58;101966.31;5442285;26;20310;-64
2024/04/11 05:56:52;;;;;;;6.20;1.90;;;;;;;10.74;56.62;101974.06;5451063;26;20234;-62
2024/04/11 05:59:20;;;;;;;7.10;1.93;;;;;;;10.75;55.99;101977.50;5448521;26;20577;-63
2024/04/11 06:01:50;;;;;;;5.23;2.17;;;;;;;10.81;56.19;101980.22;5450566;26;20354;-66
2024/04/11 06:04:18;;;;;;;5.67;2.10;;;;;;;10.87;56.10;101982.91;5447013;26;20268;-63
2024/04/11 06:06:49;;;;;;;7.83;2.30;;;;;;;10.92;55.75;101983.84;5433249;26;21237;-63
2024/04/11 06:09:22;;;;;;;5.87;2.07;;;;;;;11.05;56.11;101982.38;5447400;26;20893;-63
2024/04/11 06:11:53;;;;;;;9.90;3.40;;;;;;;11.22;54.90;101980.94;5451760;26;20231;-66
2024/04/11 06:14:20;;;;;;;4.80;1.97;;;;;;;11.62;54.53;101979.00;5451472;26;20242;-64
2024/04/11 06:16:51;;;;;;;5.77;2.20;;;;;;;12.22;52.63;101977.28;5450507;26;20242;-66
2024/04/11 06:19:18;;;;;;;4.90;2.47;;;;;;;12.72;50.22;101984.78;5451239;26;20234;-65
2024/04/11 06:21:57;;;;;;;6.50;2.43;;;;;;;13.16;49.40;101981.75;5452248;26;20800;-63
2024/04/11 06:24:27;;;;;;;6.90;1.83;;;;;;;13.66;47.47;101981.28;5450468;26;20931;-64
2024/04/11 06:26:57;;;;;;;5.93;1.57;;;;;;;14.08;45.79;101987.63;5446330;26;20662;-65
2024/04/11 06:29:24;;;;;;;6.40;1.73;;;;;;;14.54;44.83;101985.22;5448540;26;20250;-65
2024/04/11 06:31:58;;;;;;;3.47;2.13;;;;;;;15.07;44.04;101989.69;5448036;26;20338;-65
2024/04/11 06:34:27;;;;;;;3.17;1.90;;;;;;;15.53;42.40;101989.69;5448429;26;20234;-64
2024/04/11 06:36:57;;;;;;;8.38;2.22;;;;;;;15.93;41.09;101983.56;5452746;26;20218;-66
2024/04/11 06:39:27;;;;;;;2.67;1.70;;;;;;;16.30;40.15;101980.84;5446564;26;20811;-65
2024/04/11 06:41:58;;;;;;;7.38;2.08;;;;;;;16.58;39.31;101980.72;5445361;26;20300;-66
2024/04/11 06:44:26;;;;;;;7.70;2.28;;;;;;;17.01;39.08;101990.88;5443951;26;20296;-65
2024/04/11 06:46:56;;;;;;;4.35;2.08;;;;;;;17.42;37.65;101987.97;5452858;26;20294;-65
2024/04/11 06:49:23;;;;;;;5.82;2.33;;;;;;;17.88;37.44;101989.28;5436830;26;20235;-69
2024/04/11 06:51:53;;;;;;;6.88;1.80;;;;;;;18.37;35.91;101989.56;5436631;26;20351;-65
2024/04/11 06:54:21;;;;;;;8.15;2.58;;;;;;;18.71;34.80;101978.72;5443518;26;20335;-69
2024/04/11 06:56:57;;;;;;;7.90;2.40;;;;;;;18.74;34.20;101989.09;5441764;26;20342;-64
2024/04/11 06:59:24;;;;;;;4.57;2.45;;;;;;;19.13;34.10;101981.56;5439256;26;20318;-63
2024/04/11 07:01:58;;;;;;;6.03;2.25;;;;;;;19.75;33.28;101985.72;5442526;26;20246;-66
2024/04/11 07:04:26;;;;;;;5.65;1.88;;;;;;;20.22;30.79;101976.09;5439504;26;20852;-66
2024/04/11 07:07:00;;;;;;;5.25;2.13;;;;;;;20.18;31.79;101984.91;5448090;26;20326;-66
2024/04/11 07:09:37;;;;;;;4.88;1.90;;;;;;;20.49;31.50;101979.00;5439987;26;20621;-68
2024/04/11 07:12:11;;;;;;;8.57;1.65;;;;;;;21.14;30.12;101974.03;5439947;26;20246;-63
2024/04/11 07:14:40;;;;;;;5.45;1.90;;;;;;;21.59;28.74;101980.78;5433020;26;20302;-65
2024/04/11 07:17:11;;;;;;;7.22;1.85;;;;;;;21.54;28.44;101975.69;5447425;26;20262;-67
2024/04/11 07:19:39;;;;;;;6.28;1.90;;;;;;;21.79;28.41;101977.63;5438495;26;20285;-67
2024/04/11 07:22:09;;;;;;;4.85;2.13;;;;;;;22.06;28.93;101979.47;5437886;26;20331;-67
2024/04/11 07:24:37;;;;;;;4.45;1.58;;;;;;;22.64;27.82;101975.16;5438406;26;20319;-69
2024/04/11 07:27:11;;;;;;;3.58;1.90;;;;;;;23.41;25.93;101972.66;5434703;26;20291;-70
2024/04/11 07:29:38;;;;;;;7.80;2.00;;;;;;;23.64;25.58;101969.25;5441062;26;20249;-68
2024/04/11 07:32:09;;;;;;;4.55;1.73;;;;;;;23.92;25.89;101977.03;5439415;26;20294;-67
2024/04/11 07:34:36;;;;;;;6.35;2.10;;;;;;;23.36;25.01;101979.84;5436236;26;20304;-66
2024/04/11 07:37:06;;;;;;;6.68;1.77;;;;;;;22.95;26.62;101984.72;5442341;26;20242;-69
2024/04/11 07:39:34;;;;;;;6.50;2.25;;;;;;;23.29;26.30;101979.19;5446250;26;20242;-69
2024/04/11 07:42:18;;;;;;;6.93;1.70;;;;;;;24.23;25.55;101975.88;5439186;26;20662;-67
2024/04/11 07:44:52;;;;;;;5.53;1.70;;;;;;;25.00;24.44;101974.63;5436913;26;20246;-67
2024/04/11 07:47:27;;;;;;;4.45;1.90;;;;;;;25.58;23.48;101968.66;5428909;26;20251;-65
2024/04/11 07:50:13;;;;;;;4.15;1.70;;;;;;;26.06;22.12;101963.91;5434810;26;20285;-66
2024/04/11 07:52:43;;;;;;;7.60;2.20;;;;;;;26.09;21.57;101969.94;5439802;26;20378;-65
2024/04/11 07:55:14;;;;;;;5.45;1.85;;;;;;;26.24;22.40;101966.56;5435899;26;20246;-64
2024/04/11 07:57:45;;;;;;;8.23;1.85;;;;;;;27.43;21.62;101959.03;5438595;26;20704;-64
2024/04/11 08:00:20;;;;;;;5.32;2.15;;;;;;;28.71;19.58;101958.28;5436587;26;20783;-69
2024/04/11 08:02:56;;;;;;;3.45;1.67;;;;;;;28.94;19.37;101959.59;5441605;26;20245;-68
2024/04/11 08:05:24;;;;;;;5.22;1.70;;;;;;;28.99;19.30;101968.22;5440443;26;20242;-66
2024/04/11 08:07:54;;;;;;;5.15;1.85;;;;;;;29.07;18.69;101964.16;5436181;26;20255;-65
2024/04/11 08:10:27;;;;;;;2.35;1.40;;;;;;;28.71;18.09;101969.75;5438227;26;20263;-67
2024/04/11 08:12:57;;;;;;;4.43;1.58;;;;;;;28.61;19.21;101964.13;5446700;26;20717;-69
2024/04/11 08:15:27;;;;;;;3.90;1.67;;;;;;;28.62;18.78;101971.16;5449575;26;20326;-67
2024/04/11 08:17:59;;;;;;;5.43;1.85;;;;;;;28.96;18.57;101963.88;5449308;26;21073;-64
2024/04/11 08:20:26;;;;;;;5.70;2.03;;;;;;;28.70;17.93;101967.19;5449980;26;20635;-70
2024/04/11 08:22:58;;;;;;;2.75;1.70;;;;;;;27.86;18.69;101967.41;5449365;26;20253;-71
2024/04/11 08:25:34;;;;;;;5.43;1.80;;;;;;;26.72;20.17;101970.47;5450335;26;20603;-75
2024/04/11 08:28:04;;;;;;;5.47;2.38;;;;;;;25.26;21.58;101970.94;5431061;26;20305;-72
2024/04/11 08:30:35;;;;;;;5.30;2.17;;;;;;;23.92;23.24;101971.75;5452045;26;20278;-70
2024/04/11 08:33:09;;;;;;;7.30;2.00;;;;;;;23.52;23.81;101975.78;5450574;26;20333;-71
2024/04/11 08:35:37;;;;;;;4.93;1.80;;;;;;;23.03;24.48;101971.31;5438553;26;20276;-72
2024/04/11 08:38:11;;;;;;;3.80;1.35;;;;;;;22.82;24.51;101985.97;5452347;26;20237;-72
2024/04/11 08:40:44;;;;;;;4.05;1.55;;;;;;;22.90;25.58;101981.34;5452305;26;20247;-72
2024/04/11 08:43:15;;;;;;;5.47;2.15;;;;;;;22.60;25.10;101984.00;5451625;26;20554;-73
2024/04/11 08:45:45;;;;;;;6.05;2.13;;;;;;;21.96;25.84;101985.91;5452298;26;20330;-73
2024/04/11 08:48:16;;;;;;;3.67;1.70;;;;;;;21.33;26.43;101984.06;5450920;26;20343;-74
2024/04/11 08:50:44;;;;;;;3.95;1.60;;;;;;;20.78;26.89;101990.63;5452456;26;20285;-74
2024/04/11 08:53:19;;;;;;;4.18;1.23;;;;;;;20.11;27.50;101988.53;5445512;26;20311;-75
2024/04/11 08:55:48;;;;;;;3.30;1.73;;;;;;;19.45;28.92;101986.25;5441069;26;20246;-71
2024/04/11 08:58:18;;;;;;;4.00;1.45;;;;;;;18.94;30.20;101974.03;5450339;26;20585;-73
2024/04/11 09:00:50;;;;;;;3.67;1.60;;;;;;;18.49;30.49;101976.38;5450987;26;20797;-73
2024/04/11 09:03:26;;;;;;;4.57;1.67;;;;;;;18.45;31.30;101985.13;5450731;26;20234;-73
2024/04/11 09:05:57;;;;;;;3.17;1.80;;;;;;;18.62;31.40;101977.06;5443533;26;20636;-72
2024/04/11 09:08:28;;;;;;;3.75;1.42;;;;;;;18.85;31.22;101979.38;5432386;26;20269;-70
2024/04/11 09:10:56;;;;;;;4.57;1.40;;;;;;;18.87;30.64;101976.75;5451864;26;20281;-71
2024/04/11 09:13:25;;;;;;;2.55;1.17;;;;;;;18.65;30.43;101979.63;5452647;26;20301;-71
2024/04/11 09:16:04;;;;;;;4.18;1.67;;;;;;;18.52;30.94;101976.34;5453439;26;20246;-73
2024/04/11 09:18:34;;;;;;;2.75;1.60;;;;;;;18.37;31.32;101970.44;5456035;26;20292;-72
2024/04/11 09:21:04;;;;;;;3.80;1.65;;;;;;;18.53;31.10;101970.22;5456285;26;20246;-72
2024/04/11 09:23:39;;;;;;;3.83;1.65;;;;;;;18.90;30.84;101967.13;5453987;26;20242;-68
2024/04/11 09:26:06;;;;;;;6.03;1.60;;;;;;;19.13;30.35;101969.34;5454262;26;20267;-69
2024/04/11 09:28:37;;;;;;;4.40;2.40;;;;;;;19.15;30.69;101964.13;5454897;26;20243;-68
2024/04/11 09:31:07;;;;;;;3.40;1.58;;;;;;;19.19;30.03;101969.28;5455157;26;20314;-68
2024/04/11 09:33:39;;;;;;;6.50;1.88;;;;;;;19.10;29.72;101956.34;5455492;26;20279;-68
2024/04/11 09:36:09;;;;;;;3.75;1.70;;;;;;;18.97;29.47;101957.44;5454947;26;20230;-69
2024/04/11 09:38:41;;;;;;;2.67;1.30;;;;;;;19.03;29.66;101952.09;5448017;26;20250;-70
2024/04/11 09:41:11;;;;;;;2.63;1.52;;;;;;;19.24;30.35;101951.75;5449246;26;20277;-68
2024/04/11 09:43:41;;;;;;;4.72;1.88;;;;;;;19.23;30.45;101954.41;5453814;26;20246;-62
2024/04/11 09:46:17;;;;;;;2.35;1.20;;;;;;;19.06;30.86;101946.81;5447212;26;20238;-63
2024/04/11 09:48:49;;;;;;;3.72;1.45;;;;;;;19.15;31.46;101951.91;5449853;26;20285;-63
2024/04/11 09:51:20;;;;;;;4.28;1.38;;;;;;;19.34;30.23;101946.38;5449564;26;20741;-63
2024/04/11 09:53:51;;;;;;;2.05;1.40;;;;;;;19.51;30.04;101932.13;5451091;26;20280;-64
2024/04/11 09:56:23;;;;;;;3.70;1.23;;;;;;;19.54;29.11;101939.03;5448522;26;20381;-63
2024/04/11 09:58:54;;;;;;;4.35;1.40;;;;;;;19.39;29.28;101939.31;5450970;26;20246;-63
2024/04/11 10:01:31;;;;;;;4.63;1.55;;;;;;;19.42;29.65;101936.63;5449424;26;20246;-62
2024/04/11 10:04:04;;;;;;;3.53;1.20;;;;;;;19.50;29.42;101926.91;5450519;26;20362;-63
2024/04/11 10:06:35;;;;;;;4.70;1.30;;;;;;;19.71;29.64;101929.16;5435525;26;20246;-64
2024/04/11 10:09:17;;;;;;;8.40;1.42;;;;;;;19.75;28.78;101924.72;5450187;26;20234;-64
2024/04/11 10:11:46;;;;;;;3.65;1.23;;;;;;;20.04;29.03;101924.13;5449490;26;20346;-65
2024/04/11 10:14:20;;;;;;;3.75;1.60;;;;;;;20.42;28.57;101923.28;5449937;26;20254;-66
2024/04/11 10:16:55;;;;;;;2.67;1.30;;;;;;;20.72;27.94;101920.88;5447974;26;20258;-65
2024/04/11 10:19:29;;;;;;;5.35;1.45;;;;;;;20.98;27.60;101918.47;5450524;26;20334;-65
2024/04/11 10:22:04;;;;;;;3.90;1.60;;;;;;;21.42;26.90;101920.91;5452629;26;20735;-64
2024/04/11 10:24:35;;;;;;;3.60;1.48;;;;;;;21.58;26.78;101916.97;5451391;26;20242;-65
2024/04/11 10:27:10;;;;;;;4.72;1.55;;;;;;;21.28;26.35;101928.22;5453271;26;20572;-64
2024/04/11 10:29:43;;;;;;;2.15;1.38;;;;;;;20.90;26.43;101927.44;5451715;26;20717;-65
2024/04/11 10:32:21;;;;;;;5.90;1.30;;;;;;;21.18;26.44;101923.25;5452689;26;20234;-64
2024/04/11 10:34:58;;;;;;;2.83;1.45;;;;;;;21.40;27.03;101923.56;5452854;26;20544;-66
2024/04/11 10:37:29;;;;;;;4.28;1.75;;;;;;;21.53;26.34;101921.47;5449522;26;20285;-64
2024/04/11 10:40:00;;;;;;;2.78;1.30;;;;;;;21.63;26.67;101917.69;5452443;26;20272;-62
2024/04/11 10:42:36;;;;;;;3.15;1.48;;;;;;;21.86;25.92;101916.19;5443590;26;20234;-64
2024/04/11 10:45:17;;;;;;;3.05;1.20;;;;;;;21.70;25.90;101911.38;5448983;26;20250;-61
2024/04/11 10:47:48;;;;;;;5.68;1.23;;;;;;;21.69;26.27;101914.91;5441593;26;20268;-61
2024/04/11 10:50:23;;;;;;;4.03;1.20;;;;;;;21.70;25.93;101911.38;5452541;26;20261;-62
2024/04/11 10:52:51;;;;;;;4.53;1.20;;;;;;;21.97;25.94;101913.25;5452150;26;20237;-63
2024/04/11 10:55:28;;;;;;;2.55;1.25;;;;;;;22.10;24.87;101910.22;5451814;26;20242;-64
2024/04/11 10:58:08;;;;;;;2.78;1.23;;;;;;;22.12;25.17;101908.41;5452248;26;20330;-61
2024/04/11 11:03:46;;;;;;;2.05;1.25;;;;;;;22.42;25.07;101900.53;5447501;26;20289;-63
2024/04/11 11:06:24;;;;;;;2.08;1.00;;;;;;;22.45;25.34;101905.69;5452204;26;20246;-63
2024/04/11 11:09:10;;;;;;;4.05;1.67;;;;;;;22.21;25.24;101898.59;5449803;26;20246;-61
2024/04/11 11:11:41;;;;;;;5.40;1.13;;;;;;;21.97;25.43;101905.38;5416117;26;20223;-61
2024/04/11 11:14:14;;;;;;;4.40;1.33;;;;;;;21.87;25.16;101891.66;5440528;26;20346;-62
2024/04/11 11:16:43;;;;;;;2.40;0.98;;;;;;;21.51;25.88;101897.06;5451081;26;20275;-63
2024/04/11 11:19:19;;;;;;;2.13;0.93;;;;;;;20.91;27.11;101900.34;5450800;26;20338;-61
2024/04/11 11:21:50;;;;;;;3.30;1.40;;;;;;;20.61;27.55;101894.09;5450406;26;20720;-63
2024/04/11 11:24:23;;;;;;;2.47;1.20;;;;;;;20.41;28.13;101897.16;5449666;26;20300;-62
2024/04/11 11:26:56;;;;;;;2.40;1.08;;;;;;;20.30;28.64;101893.91;5450989;26;21124;-61
2024/04/11 11:29:28;;;;;;;2.85;1.42;;;;;;;20.44;28.82;101891.84;5441936;26;20234;-63
2024/04/11 11:32:02;;;;;;;4.25;1.40;;;;;;;20.57;28.69;101888.06;5447468;26;20340;-63
2024/04/11 11:34:42;;;;;;;4.55;1.30;;;;;;;20.50;28.96;101886.47;5448855;26;20342;-61
2024/04/11 11:37:12;;;;;;;4.07;1.10;;;;;;;20.40;29.41;101890.16;5448096;26;20250;-63
2024/04/11 11:39:50;;;;;;;2.97;1.30;;;;;;;20.30;28.85;101896.53;5448434;26;20627;-61
2024/04/11 11:42:23;;;;;;;2.53;1.00;;;;;;;20.07;27.87;101891.78;5451659;26;20953;-62
2024/04/11 11:45:09;;;;;;;3.28;1.00;;;;;;;20.02;28.41;101881.41;5448513;26;20725;-59
2024/04/11 11:47:37;;;;;;;4.03;1.60;;;;;;;20.08;28.91;101876.06;5451561;26;20280;-61